sensor_id;sensor_type;location;lat;lon;timestamp;P1;durP1;ratioP1;P2;durP2;ratioP2
71773;SDS011;59607;52.130;5.430;2023-05-10T00:00:18;16.77;;;11.32;;
71773;SDS011;59607;52.130;5.430;2023-05-10T00:02:44;16.50;;;11.57;;
71773;SDS011;59607;52.130;5.430;2023-05-10T00:05:17;16.27;;;12.17;;
71773;SDS011;59607;52.130;5.430;2023-05-10T00:07:43;16.98;;;12.20;;
71773;SDS011;59607;52.130;5.430;2023-05-10T00:10:11;16.13;;;12.05;;
71773;SDS011;59607;52.130;5.430;2023-05-10T00:12:45;16.80;;;13.00;;
71773;SDS011;59607;52.130;5.430;2023-05-10T00:15:17;16.95;;;12.73;;
71773;SDS011;59607;52.130;5.430;2023-05-10T00:17:46;15.77;;;11.60;;
71773;SDS011;59607;52.130;5.430;2023-05-10T00:20:14;17.08;;;12.90;;
71773;SDS011;59607;52.130;5.430;2023-05-10T00:22:47;20.38;;;13.77;;
71773;SDS011;59607;52.130;5.430;2023-05-10T00:25:16;20.67;;;15.15;;
71773;SDS011;59607;52.130;5.430;2023-05-10T00:27:50;22.50;;;14.43;;
71773;SDS011;59607;52.130;5.430;2023-05-10T00:30:16;21.90;;;14.33;;
71773;SDS011;59607;52.130;5.430;2023-05-10T00:32:52;22.85;;;14.65;;
71773;SDS011;59607;52.130;5.430;2023-05-10T00:35:19;22.85;;;15.48;;
71773;SDS011;59607;52.130;5.430;2023-05-10T00:37:46;26.52;;;17.05;;
71773;SDS011;59607;52.130;5.430;2023-05-10T00:40:16;24.42;;;15.48;;
71773;SDS011;59607;52.130;5.430;2023-05-10T00:42:43;31.20;;;15.53;;
71773;SDS011;59607;52.130;5.430;2023-05-10T00:45:12;30.40;;;16.65;;
71773;SDS011;59607;52.130;5.430;2023-05-10T00:47:39;27.33;;;15.77;;
71773;SDS011;59607;52.130;5.430;2023-05-10T00:50:05;32.15;;;17.55;;
71773;SDS011;59607;52.130;5.430;2023-05-10T00:52:33;34.83;;;19.23;;
71773;SDS011;59607;52.130;5.430;2023-05-10T00:55:04;31.87;;;19.10;;
71773;SDS011;59607;52.130;5.430;2023-05-10T00:57:32;37.72;;;19.10;;
71773;SDS011;59607;52.130;5.430;2023-05-10T01:00:01;35.47;;;20.60;;
71773;SDS011;59607;52.130;5.430;2023-05-10T01:02:36;37.70;;;20.58;;
71773;SDS011;59607;52.130;5.430;2023-05-10T01:05:17;46.88;;;21.45;;
71773;SDS011;59607;52.130;5.430;2023-05-10T01:07:47;38.70;;;19.90;;
71773;SDS011;59607;52.130;5.430;2023-05-10T01:10:16;41.50;;;21.05;;
71773;SDS011;59607;52.130;5.430;2023-05-10T01:12:46;40.53;;;20.35;;
71773;SDS011;59607;52.130;5.430;2023-05-10T01:15:22;42.63;;;21.75;;
71773;SDS011;59607;52.130;5.430;2023-05-10T01:18:03;39.25;;;20.42;;
71773;SDS011;59607;52.130;5.430;2023-05-10T01:20:35;38.33;;;20.37;;
71773;SDS011;59607;52.130;5.430;2023-05-10T01:25:52;40.10;;;20.75;;
71773;SDS011;59607;52.130;5.430;2023-05-10T01:28:33;40.20;;;20.27;;
71773;SDS011;59607;52.130;5.430;2023-05-10T01:31:55;36.45;;;18.45;;
71773;SDS011;59607;52.130;5.430;2023-05-10T01:37:42;38.75;;;19.17;;
71773;SDS011;59607;52.130;5.430;2023-05-10T01:46:49;44.38;;;20.15;;
71773;SDS011;59607;52.130;5.430;2023-05-10T01:49:23;38.07;;;18.73;;
71773;SDS011;59607;52.130;5.430;2023-05-10T01:51:59;42.08;;;20.48;;
71773;SDS011;59607;52.130;5.430;2023-05-10T01:57:43;42.03;;;21.13;;
71773;SDS011;59607;52.130;5.430;2023-05-10T02:00:15;45.10;;;20.80;;
71773;SDS011;59607;52.130;5.430;2023-05-10T02:02:45;47.17;;;21.03;;
71773;SDS011;59607;52.130;5.430;2023-05-10T02:05:15;47.95;;;21.38;;
71773;SDS011;59607;52.130;5.430;2023-05-10T02:07:45;44.63;;;22.45;;
71773;SDS011;59607;52.130;5.430;2023-05-10T02:10:13;42.70;;;20.88;;
71773;SDS011;59607;52.130;5.430;2023-05-10T02:12:47;42.47;;;20.90;;
71773;SDS011;59607;52.130;5.430;2023-05-10T02:15:16;43.53;;;20.33;;
71773;SDS011;59607;52.130;5.430;2023-05-10T02:17:52;40.95;;;20.85;;
71773;SDS011;59607;52.130;5.430;2023-05-10T02:20:23;41.15;;;20.55;;
71773;SDS011;59607;52.130;5.430;2023-05-10T02:22:52;43.45;;;21.17;;
71773;SDS011;59607;52.130;5.430;2023-05-10T02:25:24;46.97;;;21.67;;
71773;SDS011;59607;52.130;5.430;2023-05-10T02:27:55;46.00;;;21.33;;
71773;SDS011;59607;52.130;5.430;2023-05-10T02:30:23;47.00;;;21.73;;
71773;SDS011;59607;52.130;5.430;2023-05-10T02:33:07;42.60;;;21.88;;
71773;SDS011;59607;52.130;5.430;2023-05-10T02:36:00;44.75;;;21.17;;
71773;SDS011;59607;52.130;5.430;2023-05-10T02:38:28;44.17;;;21.48;;
71773;SDS011;59607;52.130;5.430;2023-05-10T02:41:03;41.43;;;20.60;;
71773;SDS011;59607;52.130;5.430;2023-05-10T02:43:31;42.50;;;21.38;;
71773;SDS011;59607;52.130;5.430;2023-05-10T02:46:05;45.00;;;21.83;;
71773;SDS011;59607;52.130;5.430;2023-05-10T02:48:32;44.22;;;21.08;;
71773;SDS011;59607;52.130;5.430;2023-05-10T02:51:00;43.92;;;21.13;;
71773;SDS011;59607;52.130;5.430;2023-05-10T02:53:36;42.77;;;20.63;;
71773;SDS011;59607;52.130;5.430;2023-05-10T02:56:34;49.38;;;21.92;;
71773;SDS011;59607;52.130;5.430;2023-05-10T02:59:05;44.22;;;20.35;;
71773;SDS011;59607;52.130;5.430;2023-05-10T03:01:34;42.38;;;21.13;;
71773;SDS011;59607;52.130;5.430;2023-05-10T03:04:01;46.53;;;23.08;;
71773;SDS011;59607;52.130;5.430;2023-05-10T03:06:33;48.20;;;22.70;;
71773;SDS011;59607;52.130;5.430;2023-05-10T03:09:08;54.67;;;23.60;;
71773;SDS011;59607;52.130;5.430;2023-05-10T03:20:36;61.30;;;25.37;;
71773;SDS011;59607;52.130;5.430;2023-05-10T03:23:18;58.67;;;24.48;;
71773;SDS011;59607;52.130;5.430;2023-05-10T03:25:53;62.70;;;24.50;;
71773;SDS011;59607;52.130;5.430;2023-05-10T03:28:20;58.47;;;23.75;;
71773;SDS011;59607;52.130;5.430;2023-05-10T03:30:51;62.03;;;23.52;;
71773;SDS011;59607;52.130;5.430;2023-05-10T03:33:22;68.23;;;24.77;;
71773;SDS011;59607;52.130;5.430;2023-05-10T03:35:48;61.90;;;24.08;;
71773;SDS011;59607;52.130;5.430;2023-05-10T03:38:14;69.15;;;25.27;;
71773;SDS011;59607;52.130;5.430;2023-05-10T03:40:41;61.53;;;24.73;;
71773;SDS011;59607;52.130;5.430;2023-05-10T03:43:07;62.63;;;23.73;;
71773;SDS011;59607;52.130;5.430;2023-05-10T03:45:34;65.43;;;23.27;;
71773;SDS011;59607;52.130;5.430;2023-05-10T03:48:03;58.55;;;22.67;;
71773;SDS011;59607;52.130;5.430;2023-05-10T03:50:34;64.75;;;24.10;;
71773;SDS011;59607;52.130;5.430;2023-05-10T03:53:03;62.10;;;24.33;;
71773;SDS011;59607;52.130;5.430;2023-05-10T03:55:30;62.95;;;24.83;;
71773;SDS011;59607;52.130;5.430;2023-05-10T03:58:06;64.83;;;23.23;;
71773;SDS011;59607;52.130;5.430;2023-05-10T04:00:39;55.92;;;23.38;;
71773;SDS011;59607;52.130;5.430;2023-05-10T04:03:15;66.80;;;25.42;;
71773;SDS011;59607;52.130;5.430;2023-05-10T04:06:00;63.97;;;23.80;;
71773;SDS011;59607;52.130;5.430;2023-05-10T04:08:37;63.92;;;24.60;;
71773;SDS011;59607;52.130;5.430;2023-05-10T04:11:12;59.67;;;23.60;;
71773;SDS011;59607;52.130;5.430;2023-05-10T04:13:39;58.95;;;23.23;;
71773;SDS011;59607;52.130;5.430;2023-05-10T04:16:06;67.47;;;24.92;;
71773;SDS011;59607;52.130;5.430;2023-05-10T04:18:36;59.83;;;22.85;;
71773;SDS011;59607;52.130;5.430;2023-05-10T04:21:03;61.78;;;23.60;;
71773;SDS011;59607;52.130;5.430;2023-05-10T04:23:32;55.70;;;21.83;;
71773;SDS011;59607;52.130;5.430;2023-05-10T04:26:01;59.22;;;23.40;;
71773;SDS011;59607;52.130;5.430;2023-05-10T04:28:28;60.25;;;24.58;;
71773;SDS011;59607;52.130;5.430;2023-05-10T04:31:04;59.58;;;22.73;;
71773;SDS011;59607;52.130;5.430;2023-05-10T04:33:32;54.10;;;21.75;;
71773;SDS011;59607;52.130;5.430;2023-05-10T04:36:02;48.03;;;21.47;;
71773;SDS011;59607;52.130;5.430;2023-05-10T04:38:31;54.08;;;21.50;;
71773;SDS011;59607;52.130;5.430;2023-05-10T04:41:10;60.47;;;21.23;;
71773;SDS011;59607;52.130;5.430;2023-05-10T04:43:37;57.08;;;22.20;;
71773;SDS011;59607;52.130;5.430;2023-05-10T04:46:05;57.58;;;22.20;;
71773;SDS011;59607;52.130;5.430;2023-05-10T04:48:33;53.23;;;21.57;;
71773;SDS011;59607;52.130;5.430;2023-05-10T04:50:59;52.05;;;20.83;;
71773;SDS011;59607;52.130;5.430;2023-05-10T04:53:27;59.20;;;24.10;;
71773;SDS011;59607;52.130;5.430;2023-05-10T04:55:54;58.70;;;22.65;;
71773;SDS011;59607;52.130;5.430;2023-05-10T04:58:24;54.65;;;21.23;;
71773;SDS011;59607;52.130;5.430;2023-05-10T05:00:56;61.80;;;23.57;;
71773;SDS011;59607;52.130;5.430;2023-05-10T05:03:26;62.55;;;22.70;;
71773;SDS011;59607;52.130;5.430;2023-05-10T05:05:53;59.88;;;22.52;;
71773;SDS011;59607;52.130;5.430;2023-05-10T05:08:26;62.45;;;22.73;;
71773;SDS011;59607;52.130;5.430;2023-05-10T05:10:52;64.75;;;23.85;;
71773;SDS011;59607;52.130;5.430;2023-05-10T05:13:20;60.60;;;23.73;;
71773;SDS011;59607;52.130;5.430;2023-05-10T05:15:53;61.28;;;23.25;;
71773;SDS011;59607;52.130;5.430;2023-05-10T05:18:26;61.15;;;23.35;;
71773;SDS011;59607;52.130;5.430;2023-05-10T05:20:55;60.60;;;23.23;;
71773;SDS011;59607;52.130;5.430;2023-05-10T05:23:22;63.45;;;22.70;;
71773;SDS011;59607;52.130;5.430;2023-05-10T05:25:53;65.60;;;23.27;;
71773;SDS011;59607;52.130;5.430;2023-05-10T05:28:20;59.88;;;23.92;;
71773;SDS011;59607;52.130;5.430;2023-05-10T05:30:47;65.18;;;22.95;;
71773;SDS011;59607;52.130;5.430;2023-05-10T05:33:18;69.80;;;25.05;;
71773;SDS011;59607;52.130;5.430;2023-05-10T05:35:45;64.68;;;25.00;;
71773;SDS011;59607;52.130;5.430;2023-05-10T05:38:21;67.03;;;25.23;;
71773;SDS011;59607;52.130;5.430;2023-05-10T05:40:48;63.10;;;24.27;;
71773;SDS011;59607;52.130;5.430;2023-05-10T05:43:14;60.53;;;24.75;;
71773;SDS011;59607;52.130;5.430;2023-05-10T05:45:47;61.65;;;24.73;;
71773;SDS011;59607;52.130;5.430;2023-05-10T05:48:15;54.78;;;22.35;;
71773;SDS011;59607;52.130;5.430;2023-05-10T05:50:44;57.00;;;23.93;;
71773;SDS011;59607;52.130;5.430;2023-05-10T05:53:15;50.75;;;22.02;;
71773;SDS011;59607;52.130;5.430;2023-05-10T05:55:51;57.97;;;22.25;;
71773;SDS011;59607;52.130;5.430;2023-05-10T05:58:22;53.03;;;22.08;;
71773;SDS011;59607;52.130;5.430;2023-05-10T06:00:49;50.60;;;21.77;;
71773;SDS011;59607;52.130;5.430;2023-05-10T06:03:20;51.53;;;22.50;;
71773;SDS011;59607;52.130;5.430;2023-05-10T06:05:46;48.03;;;21.58;;
71773;SDS011;59607;52.130;5.430;2023-05-10T06:08:21;51.88;;;23.58;;
71773;SDS011;59607;52.130;5.430;2023-05-10T06:10:48;43.92;;;20.50;;
71773;SDS011;59607;52.130;5.430;2023-05-10T06:13:20;47.38;;;20.23;;
71773;SDS011;59607;52.130;5.430;2023-05-10T06:15:47;41.47;;;18.93;;
71773;SDS011;59607;52.130;5.430;2023-05-10T06:18:13;46.88;;;20.83;;
71773;SDS011;59607;52.130;5.430;2023-05-10T06:20:53;46.17;;;21.45;;
71773;SDS011;59607;52.130;5.430;2023-05-10T06:23:19;45.80;;;20.45;;
71773;SDS011;59607;52.130;5.430;2023-05-10T06:25:49;40.63;;;19.63;;
71773;SDS011;59607;52.130;5.430;2023-05-10T06:28:15;49.67;;;19.57;;
71773;SDS011;59607;52.130;5.430;2023-05-10T06:30:45;44.58;;;19.83;;
71773;SDS011;59607;52.130;5.430;2023-05-10T06:33:11;48.42;;;20.20;;
71773;SDS011;59607;52.130;5.430;2023-05-10T06:35:37;41.28;;;18.38;;
71773;SDS011;59607;52.130;5.430;2023-05-10T06:38:07;37.40;;;18.30;;
71773;SDS011;59607;52.130;5.430;2023-05-10T06:40:40;44.27;;;18.73;;
71773;SDS011;59607;52.130;5.430;2023-05-10T06:43:10;37.83;;;18.00;;
71773;SDS011;59607;52.130;5.430;2023-05-10T06:45:37;34.38;;;16.67;;
71773;SDS011;59607;52.130;5.430;2023-05-10T06:48:04;32.78;;;15.10;;
71773;SDS011;59607;52.130;5.430;2023-05-10T06:50:37;32.50;;;15.43;;
71773;SDS011;59607;52.130;5.430;2023-05-10T06:53:05;29.33;;;15.77;;
71773;SDS011;59607;52.130;5.430;2023-05-10T06:55:32;29.58;;;15.02;;
71773;SDS011;59607;52.130;5.430;2023-05-10T06:58:01;26.55;;;13.93;;
71773;SDS011;59607;52.130;5.430;2023-05-10T07:00:31;20.33;;;12.75;;
71773;SDS011;59607;52.130;5.430;2023-05-10T07:03:00;24.55;;;12.85;;
71773;SDS011;59607;52.130;5.430;2023-05-10T07:05:31;20.27;;;11.83;;
71773;SDS011;59607;52.130;5.430;2023-05-10T07:07:58;22.00;;;11.57;;
71773;SDS011;59607;52.130;5.430;2023-05-10T07:10:32;14.73;;;10.13;;
71773;SDS011;59607;52.130;5.430;2023-05-10T07:12:59;22.17;;;9.65;;
71773;SDS011;59607;52.130;5.430;2023-05-10T07:15:29;11.80;;;8.82;;
71773;SDS011;59607;52.130;5.430;2023-05-10T07:17:56;13.63;;;8.87;;
71773;SDS011;59607;52.130;5.430;2023-05-10T07:20:22;13.88;;;8.80;;
71773;SDS011;59607;52.130;5.430;2023-05-10T07:22:55;13.80;;;8.38;;
71773;SDS011;59607;52.130;5.430;2023-05-10T07:25:23;12.15;;;7.82;;
71773;SDS011;59607;52.130;5.430;2023-05-10T07:27:50;11.50;;;7.95;;
71773;SDS011;59607;52.130;5.430;2023-05-10T07:30:23;13.00;;;7.50;;
71773;SDS011;59607;52.130;5.430;2023-05-10T07:32:50;17.98;;;8.45;;
71773;SDS011;59607;52.130;5.430;2023-05-10T07:35:25;12.07;;;8.68;;
71773;SDS011;59607;52.130;5.430;2023-05-10T07:37:52;11.00;;;8.57;;
71773;SDS011;59607;52.130;5.430;2023-05-10T07:40:22;9.77;;;7.28;;
71773;SDS011;59607;52.130;5.430;2023-05-10T07:42:51;13.03;;;8.03;;
71773;SDS011;59607;52.130;5.430;2023-05-10T07:45:18;11.35;;;7.70;;
71773;SDS011;59607;52.130;5.430;2023-05-10T07:47:44;13.48;;;8.35;;
71773;SDS011;59607;52.130;5.430;2023-05-10T07:50:14;12.43;;;7.75;;
71773;SDS011;59607;52.130;5.430;2023-05-10T07:52:41;13.13;;;7.93;;
71773;SDS011;59607;52.130;5.430;2023-05-10T07:55:13;12.47;;;8.40;;
71773;SDS011;59607;52.130;5.430;2023-05-10T07:57:43;17.48;;;8.38;;
71773;SDS011;59607;52.130;5.430;2023-05-10T08:00:22;12.18;;;7.88;;
71773;SDS011;59607;52.130;5.430;2023-05-10T08:02:49;13.18;;;8.05;;
71773;SDS011;59607;52.130;5.430;2023-05-10T08:05:27;12.25;;;7.38;;
71773;SDS011;59607;52.130;5.430;2023-05-10T08:07:54;12.93;;;7.87;;
71773;SDS011;59607;52.130;5.430;2023-05-10T08:10:38;11.40;;;7.15;;
71773;SDS011;59607;52.130;5.430;2023-05-10T08:13:11;12.25;;;7.35;;
71773;SDS011;59607;52.130;5.430;2023-05-10T08:15:40;11.45;;;7.68;;
71773;SDS011;59607;52.130;5.430;2023-05-10T08:18:09;14.77;;;7.50;;
71773;SDS011;59607;52.130;5.430;2023-05-10T08:20:36;9.90;;;6.63;;
71773;SDS011;59607;52.130;5.430;2023-05-10T08:23:06;9.40;;;7.25;;
71773;SDS011;59607;52.130;5.430;2023-05-10T08:25:33;12.20;;;7.55;;
71773;SDS011;59607;52.130;5.430;2023-05-10T08:27:59;9.10;;;7.63;;
71773;SDS011;59607;52.130;5.430;2023-05-10T08:30:32;11.32;;;7.47;;
71773;SDS011;59607;52.130;5.430;2023-05-10T08:33:09;9.17;;;7.70;;
71773;SDS011;59607;52.130;5.430;2023-05-10T08:35:41;11.90;;;8.27;;
71773;SDS011;59607;52.130;5.430;2023-05-10T08:38:08;10.55;;;7.43;;
71773;SDS011;59607;52.130;5.430;2023-05-10T08:40:39;12.95;;;8.63;;
71773;SDS011;59607;52.130;5.430;2023-05-10T08:43:08;11.32;;;8.68;;
71773;SDS011;59607;52.130;5.430;2023-05-10T08:45:44;12.07;;;8.43;;
71773;SDS011;59607;52.130;5.430;2023-05-10T08:48:15;18.02;;;8.50;;
71773;SDS011;59607;52.130;5.430;2023-05-10T08:51:00;13.82;;;8.73;;
71773;SDS011;59607;52.130;5.430;2023-05-10T08:53:33;12.43;;;8.60;;
71773;SDS011;59607;52.130;5.430;2023-05-10T08:56:05;11.70;;;9.18;;
71773;SDS011;59607;52.130;5.430;2023-05-10T08:58:37;12.97;;;8.63;;
71773;SDS011;59607;52.130;5.430;2023-05-10T09:01:04;12.45;;;8.93;;
71773;SDS011;59607;52.130;5.430;2023-05-10T09:03:34;14.07;;;9.23;;
71773;SDS011;59607;52.130;5.430;2023-05-10T09:06:01;8.63;;;7.22;;
71773;SDS011;59607;52.130;5.430;2023-05-10T09:08:27;12.20;;;8.20;;
71773;SDS011;59607;52.130;5.430;2023-05-10T09:10:59;8.73;;;7.83;;
71773;SDS011;59607;52.130;5.430;2023-05-10T09:13:27;8.85;;;7.60;;
71773;SDS011;59607;52.130;5.430;2023-05-10T09:15:57;9.57;;;7.78;;
71773;SDS011;59607;52.130;5.430;2023-05-10T09:18:38;10.65;;;7.07;;
71773;SDS011;59607;52.130;5.430;2023-05-10T09:21:07;8.48;;;6.35;;
71773;SDS011;59607;52.130;5.430;2023-05-10T09:23:42;6.47;;;5.33;;
71773;SDS011;59607;52.130;5.430;2023-05-10T09:26:14;5.25;;;4.75;;
71773;SDS011;59607;52.130;5.430;2023-05-10T09:28:51;5.38;;;4.65;;
71773;SDS011;59607;52.130;5.430;2023-05-10T09:31:18;5.05;;;4.55;;
71773;SDS011;59607;52.130;5.430;2023-05-10T09:33:48;4.95;;;3.85;;
71773;SDS011;59607;52.130;5.430;2023-05-10T09:36:19;4.80;;;4.30;;
71773;SDS011;59607;52.130;5.430;2023-05-10T09:38:49;3.67;;;2.92;;
71773;SDS011;59607;52.130;5.430;2023-05-10T09:41:21;2.78;;;2.05;;
71773;SDS011;59607;52.130;5.430;2023-05-10T09:43:55;3.75;;;2.20;;
71773;SDS011;59607;52.130;5.430;2023-05-10T09:46:23;4.20;;;2.30;;
71773;SDS011;59607;52.130;5.430;2023-05-10T09:48:53;4.87;;;3.03;;
71773;SDS011;59607;52.130;5.430;2023-05-10T09:51:29;3.70;;;3.38;;
71773;SDS011;59607;52.130;5.430;2023-05-10T09:54:12;3.30;;;2.95;;
71773;SDS011;59607;52.130;5.430;2023-05-10T09:56:44;2.95;;;2.75;;
71773;SDS011;59607;52.130;5.430;2023-05-10T09:59:11;3.72;;;3.13;;
71773;SDS011;59607;52.130;5.430;2023-05-10T10:01:50;3.40;;;3.10;;
71773;SDS011;59607;52.130;5.430;2023-05-10T10:04:23;3.42;;;3.13;;
71773;SDS011;59607;52.130;5.430;2023-05-10T10:07:11;3.58;;;3.10;;
71773;SDS011;59607;52.130;5.430;2023-05-10T10:09:37;6.05;;;3.28;;
71773;SDS011;59607;52.130;5.430;2023-05-10T10:12:12;4.63;;;3.22;;
71773;SDS011;59607;52.130;5.430;2023-05-10T10:14:39;5.17;;;3.57;;
71773;SDS011;59607;52.130;5.430;2023-05-10T10:17:08;5.20;;;3.38;;
71773;SDS011;59607;52.130;5.430;2023-05-10T10:19:39;3.47;;;3.05;;
71773;SDS011;59607;52.130;5.430;2023-05-10T10:22:05;4.78;;;3.85;;
71773;SDS011;59607;52.130;5.430;2023-05-10T10:24:40;6.22;;;3.45;;
71773;SDS011;59607;52.130;5.430;2023-05-10T10:30:00;5.22;;;3.28;;
71773;SDS011;59607;52.130;5.430;2023-05-10T10:33:01;3.90;;;3.50;;
71773;SDS011;59607;52.130;5.430;2023-05-10T10:36:02;3.83;;;3.35;;
71773;SDS011;59607;52.130;5.430;2023-05-10T10:39:16;4.20;;;3.85;;
71773;SDS011;59607;52.130;5.430;2023-05-10T10:41:34;5.63;;;4.20;;
71773;SDS011;59607;52.130;5.430;2023-05-10T10:52:28;5.70;;;4.03;;
71773;SDS011;59607;52.130;5.430;2023-05-10T10:55:07;5.57;;;4.60;;
71773;SDS011;59607;52.130;5.430;2023-05-10T11:03:03;4.28;;;3.88;;
71773;SDS011;59607;52.130;5.430;2023-05-10T11:08:27;4.13;;;3.73;;
71773;SDS011;59607;52.130;5.430;2023-05-10T11:13:28;3.30;;;3.00;;
71773;SDS011;59607;52.130;5.430;2023-05-10T11:19:06;3.72;;;3.38;;
71773;SDS011;59607;52.130;5.430;2023-05-10T11:24:34;4.22;;;3.60;;
71773;SDS011;59607;52.130;5.430;2023-05-10T11:27:01;4.40;;;3.47;;
71773;SDS011;59607;52.130;5.430;2023-05-10T11:29:36;4.60;;;3.50;;
71773;SDS011;59607;52.130;5.430;2023-05-10T11:32:02;4.20;;;3.33;;
71773;SDS011;59607;52.130;5.430;2023-05-10T11:34:35;6.43;;;3.77;;
71773;SDS011;59607;52.130;5.430;2023-05-10T11:37:03;4.53;;;3.65;;
71773;SDS011;59607;52.130;5.430;2023-05-10T11:39:33;4.47;;;3.20;;
71773;SDS011;59607;52.130;5.430;2023-05-10T11:42:02;4.20;;;3.40;;
71773;SDS011;59607;52.130;5.430;2023-05-10T11:44:32;4.60;;;3.30;;
71773;SDS011;59607;52.130;5.430;2023-05-10T11:47:11;4.50;;;3.10;;
71773;SDS011;59607;52.130;5.430;2023-05-10T11:49:43;3.15;;;2.45;;
71773;SDS011;59607;52.130;5.430;2023-05-10T11:52:14;5.03;;;3.28;;
71773;SDS011;59607;52.130;5.430;2023-05-10T11:54:52;5.25;;;2.80;;
71773;SDS011;59607;52.130;5.430;2023-05-10T11:57:20;3.55;;;2.47;;
71773;SDS011;59607;52.130;5.430;2023-05-10T11:59:54;3.63;;;2.87;;
71773;SDS011;59607;52.130;5.430;2023-05-10T12:02:22;3.38;;;2.60;;
71773;SDS011;59607;52.130;5.430;2023-05-10T12:05:03;5.68;;;2.70;;
71773;SDS011;59607;52.130;5.430;2023-05-10T12:07:39;3.70;;;3.30;;
71773;SDS011;59607;52.130;5.430;2023-05-10T12:10:12;2.97;;;2.42;;
71773;SDS011;59607;52.130;5.430;2023-05-10T12:12:44;3.53;;;2.47;;
71773;SDS011;59607;52.130;5.430;2023-05-10T12:15:12;5.30;;;2.40;;
71773;SDS011;59607;52.130;5.430;2023-05-10T12:17:48;2.05;;;1.42;;
71773;SDS011;59607;52.130;5.430;2023-05-10T12:20:19;3.03;;;1.65;;
71773;SDS011;59607;52.130;5.430;2023-05-10T12:22:50;2.40;;;1.52;;
71773;SDS011;59607;52.130;5.430;2023-05-10T12:25:29;7.13;;;2.50;;
71773;SDS011;59607;52.130;5.430;2023-05-10T12:28:05;4.28;;;1.75;;
71773;SDS011;59607;52.130;5.430;2023-05-10T12:30:36;2.25;;;1.80;;
71773;SDS011;59607;52.130;5.430;2023-05-10T12:33:13;3.35;;;1.85;;
71773;SDS011;59607;52.130;5.430;2023-05-10T12:35:49;4.78;;;2.03;;
71773;SDS011;59607;52.130;5.430;2023-05-10T12:38:32;4.77;;;2.50;;
71773;SDS011;59607;52.130;5.430;2023-05-10T12:41:06;3.53;;;2.50;;
71773;SDS011;59607;52.130;5.430;2023-05-10T12:43:43;2.60;;;1.50;;
71773;SDS011;59607;52.130;5.430;2023-05-10T12:46:19;1.48;;;1.30;;
71773;SDS011;59607;52.130;5.430;2023-05-10T12:48:45;2.10;;;1.88;;
71773;SDS011;59607;52.130;5.430;2023-05-10T12:51:16;2.00;;;1.67;;
71773;SDS011;59607;52.130;5.430;2023-05-10T12:53:47;3.45;;;1.30;;
71773;SDS011;59607;52.130;5.430;2023-05-10T12:56:17;2.70;;;1.90;;
71773;SDS011;59607;52.130;5.430;2023-05-10T12:58:47;2.30;;;1.63;;
71773;SDS011;59607;52.130;5.430;2023-05-10T13:01:14;1.90;;;1.67;;
71773;SDS011;59607;52.130;5.430;2023-05-10T13:04:03;3.03;;;1.77;;
71773;SDS011;59607;52.130;5.430;2023-05-10T13:06:30;2.42;;;1.40;;
71773;SDS011;59607;52.130;5.430;2023-05-10T13:08:56;2.20;;;1.17;;
71773;SDS011;59607;52.130;5.430;2023-05-10T13:11:25;2.58;;;1.52;;
71773;SDS011;59607;52.130;5.430;2023-05-10T13:14:02;2.85;;;1.25;;
71773;SDS011;59607;52.130;5.430;2023-05-10T13:16:31;2.10;;;1.50;;
71773;SDS011;59607;52.130;5.430;2023-05-10T13:19:05;4.45;;;1.60;;
71773;SDS011;59607;52.130;5.430;2023-05-10T13:21:48;3.40;;;2.05;;
71773;SDS011;59607;52.130;5.430;2023-05-10T13:24:21;3.38;;;3.05;;
71773;SDS011;59607;52.130;5.430;2023-05-10T13:26:48;5.05;;;3.63;;
71773;SDS011;59607;52.130;5.430;2023-05-10T13:29:15;5.67;;;3.67;;
71773;SDS011;59607;52.130;5.430;2023-05-10T13:31:52;5.88;;;3.90;;
71773;SDS011;59607;52.130;5.430;2023-05-10T13:34:34;4.35;;;3.45;;
71773;SDS011;59607;52.130;5.430;2023-05-10T13:37:01;4.35;;;3.95;;
71773;SDS011;59607;52.130;5.430;2023-05-10T13:39:28;5.38;;;3.80;;
71773;SDS011;59607;52.130;5.430;2023-05-10T13:41:59;5.97;;;3.87;;
71773;SDS011;59607;52.130;5.430;2023-05-10T13:44:31;5.95;;;4.05;;
71773;SDS011;59607;52.130;5.430;2023-05-10T13:47:02;4.13;;;3.38;;
71773;SDS011;59607;52.130;5.430;2023-05-10T13:49:35;5.95;;;3.40;;
71773;SDS011;59607;52.130;5.430;2023-05-10T13:52:02;4.72;;;3.35;;
71773;SDS011;59607;52.130;5.430;2023-05-10T13:54:37;5.53;;;3.47;;
71773;SDS011;59607;52.130;5.430;2023-05-10T13:57:04;5.63;;;3.47;;
71773;SDS011;59607;52.130;5.430;2023-05-10T13:59:33;5.13;;;3.60;;
71773;SDS011;59607;52.130;5.430;2023-05-10T14:02:00;6.15;;;3.38;;
71773;SDS011;59607;52.130;5.430;2023-05-10T14:04:28;4.93;;;3.67;;
71773;SDS011;59607;52.130;5.430;2023-05-10T14:07:03;4.67;;;3.40;;
71773;SDS011;59607;52.130;5.430;2023-05-10T14:09:29;4.47;;;3.70;;
71773;SDS011;59607;52.130;5.430;2023-05-10T14:12:02;5.25;;;3.72;;
71773;SDS011;59607;52.130;5.430;2023-05-10T14:14:36;5.18;;;3.58;;
71773;SDS011;59607;52.130;5.430;2023-05-10T14:17:09;4.80;;;3.70;;
71773;SDS011;59607;52.130;5.430;2023-05-10T14:19:41;5.93;;;4.10;;
71773;SDS011;59607;52.130;5.430;2023-05-10T14:22:11;5.97;;;4.35;;
71773;SDS011;59607;52.130;5.430;2023-05-10T14:24:37;7.50;;;4.18;;
71773;SDS011;59607;52.130;5.430;2023-05-10T14:27:08;8.13;;;4.22;;
71773;SDS011;59607;52.130;5.430;2023-05-10T14:29:41;5.43;;;4.03;;
71773;SDS011;59607;52.130;5.430;2023-05-10T14:35:02;6.00;;;4.55;;
71773;SDS011;59607;52.130;5.430;2023-05-10T14:37:35;7.13;;;5.03;;
71773;SDS011;59607;52.130;5.430;2023-05-10T14:40:15;6.07;;;4.68;;
71773;SDS011;59607;52.130;5.430;2023-05-10T14:42:56;5.90;;;4.47;;
71773;SDS011;59607;52.130;5.430;2023-05-10T14:45:38;5.43;;;4.53;;
71773;SDS011;59607;52.130;5.430;2023-05-10T14:48:08;6.57;;;4.47;;
71773;SDS011;59607;52.130;5.430;2023-05-10T14:50:41;6.57;;;4.40;;
71773;SDS011;59607;52.130;5.430;2023-05-10T14:53:17;6.80;;;4.35;;
71773;SDS011;59607;52.130;5.430;2023-05-10T14:55:50;6.70;;;4.85;;
71773;SDS011;59607;52.130;5.430;2023-05-10T14:58:23;6.43;;;5.10;;
71773;SDS011;59607;52.130;5.430;2023-05-10T15:00:59;5.18;;;4.68;;
71773;SDS011;59607;52.130;5.430;2023-05-10T15:03:36;7.53;;;4.97;;
71773;SDS011;59607;52.130;5.430;2023-05-10T15:06:04;6.43;;;4.72;;
71773;SDS011;59607;52.130;5.430;2023-05-10T15:08:58;7.30;;;5.35;;
71773;SDS011;59607;52.130;5.430;2023-05-10T15:11:24;7.30;;;5.37;;
71773;SDS011;59607;52.130;5.430;2023-05-10T15:13:56;10.38;;;5.47;;
71773;SDS011;59607;52.130;5.430;2023-05-10T15:16:35;7.50;;;5.40;;
71773;SDS011;59607;52.130;5.430;2023-05-10T15:19:14;7.70;;;4.88;;
71773;SDS011;59607;52.130;5.430;2023-05-10T15:21:50;6.63;;;5.43;;
71773;SDS011;59607;52.130;5.430;2023-05-10T15:24:17;6.83;;;4.83;;
71773;SDS011;59607;52.130;5.430;2023-05-10T15:27:07;5.82;;;4.85;;
71773;SDS011;59607;52.130;5.430;2023-05-10T15:29:37;7.40;;;5.53;;
71773;SDS011;59607;52.130;5.430;2023-05-10T15:32:14;6.45;;;5.10;;
71773;SDS011;59607;52.130;5.430;2023-05-10T15:34:59;7.05;;;4.57;;
71773;SDS011;59607;52.130;5.430;2023-05-10T15:37:29;8.30;;;4.87;;
71773;SDS011;59607;52.130;5.430;2023-05-10T15:39:57;6.32;;;5.13;;
71773;SDS011;59607;52.130;5.430;2023-05-10T15:42:43;6.28;;;4.70;;
71773;SDS011;59607;52.130;5.430;2023-05-10T15:45:13;6.15;;;5.00;;
71773;SDS011;59607;52.130;5.430;2023-05-10T15:47:44;5.30;;;4.60;;
71773;SDS011;59607;52.130;5.430;2023-05-10T15:50:21;5.97;;;4.77;;
71773;SDS011;59607;52.130;5.430;2023-05-10T15:52:48;6.05;;;4.60;;
71773;SDS011;59607;52.130;5.430;2023-05-10T15:55:14;5.28;;;4.20;;